createdAt,value
2022-11-19T00:02:08.111Z,17.23
2022-11-19T00:04:37.241Z,19.17
2022-11-19T00:07:05.346Z,17.33
2022-11-19T00:09:33.123Z,20.15
2022-11-19T00:12:18.368Z,17.85
2022-11-19T00:14:46.125Z,16.75
2022-11-19T00:17:13.843Z,15.65
2022-11-19T00:19:42.917Z,14.45
2022-11-19T00:22:10.584Z,14.60
2022-11-19T00:24:39.525Z,12.82
2022-11-19T00:27:07.213Z,12.18
2022-11-19T00:29:34.921Z,12.75
2022-11-19T00:32:02.618Z,13.65
2022-11-19T00:34:30.289Z,13.98
2022-11-19T00:36:59.409Z,13.50
2022-11-19T00:39:27.107Z,14.73
2022-11-19T00:41:54.825Z,13.55
2022-11-19T00:44:22.483Z,12.90
2022-11-19T00:46:50.210Z,14.48
2022-11-19T00:49:18.329Z,12.82
2022-11-19T00:51:46.477Z,14.90
2022-11-19T00:54:15.718Z,12.85
2022-11-19T00:56:43.443Z,12.95
2022-11-19T00:59:11.483Z,15.35
2022-11-19T01:01:39.579Z,13.10
2022-11-19T01:04:07.430Z,16.13
2022-11-19T01:06:35.157Z,13.75
2022-11-19T01:09:02.897Z,14.52
2022-11-19T01:11:34.411Z,16.17
2022-11-19T01:14:03.340Z,13.88
2022-11-19T01:16:33.681Z,15.10
2022-11-19T01:19:01.977Z,13.75
2022-11-19T01:21:31.398Z,14.75
2022-11-19T01:24:00.428Z,13.77
2022-11-19T01:26:29.074Z,13.10
2022-11-19T01:28:58.560Z,10.63
2022-11-19T01:31:28.139Z,11.98
2022-11-19T01:33:56.239Z,11.05
2022-11-19T01:36:25.087Z,10.50
2022-11-19T01:38:54.301Z,11.98
2022-11-19T01:41:23.590Z,13.18
2022-11-19T01:43:53.491Z,12.95
2022-11-19T01:46:24.265Z,14.95
2022-11-19T01:48:54.886Z,11.57
2022-11-19T01:51:26.053Z,11.38
2022-11-19T01:53:56.770Z,14.18
2022-11-19T01:56:24.932Z,15.73
2022-11-19T01:58:57.852Z,16.90
2022-11-19T02:01:28.876Z,15.40
2022-11-19T02:03:56.721Z,15.68
2022-11-19T02:06:24.536Z,17.67
2022-11-19T02:08:53.107Z,15.23
2022-11-19T02:11:50.441Z,14.95
2022-11-19T02:14:38.043Z,16.13
2022-11-19T02:17:19.722Z,17.17
2022-11-19T02:20:11.513Z,17.38
2022-11-19T02:23:00.707Z,18.25
2022-11-19T02:25:46.447Z,19.63
2022-11-19T02:28:33.097Z,17.88
2022-11-19T02:31:09.919Z,17.58
2022-11-19T02:33:45.730Z,17.52
2022-11-19T02:36:21.004Z,20.17
2022-11-19T02:38:53.593Z,19.60
2022-11-19T02:41:35.624Z,20.23
2022-11-19T02:44:39.296Z,21.40
2022-11-19T02:47:13.460Z,20.25
2022-11-19T02:49:44.249Z,23.67
2022-11-19T02:52:12.897Z,23.17
2022-11-19T02:54:40.784Z,24.40
2022-11-19T02:57:11.758Z,21.70
2022-11-19T02:59:59.048Z,21.15
2022-11-19T03:02:52.121Z,21.90
2022-11-19T03:05:23.145Z,25.42
2022-11-19T03:07:51.442Z,24.45
2022-11-19T03:10:21.156Z,24.55
2022-11-19T03:12:54.535Z,20.65
2022-11-19T03:15:46.765Z,22.63
2022-11-19T03:18:20.422Z,23.85
2022-11-19T03:20:53.290Z,25.30
2022-11-19T03:23:25.895Z,26.05
2022-11-19T03:25:57.810Z,25.42
2022-11-19T03:28:28.226Z,24.90
2022-11-19T03:30:59.673Z,25.63
2022-11-19T03:33:32.742Z,25.35
2022-11-19T03:36:05.097Z,24.50
2022-11-19T03:38:37.861Z,27.63
2022-11-19T03:41:08.267Z,26.45
2022-11-19T03:43:39.999Z,26.10
2022-11-19T03:46:14.296Z,25.90
2022-11-19T03:48:46.437Z,27.35
2022-11-19T03:51:17.219Z,30.20
2022-11-19T03:53:45.005Z,27.30
2022-11-19T03:56:16.249Z,29.88
2022-11-19T03:58:47.393Z,28.45
2022-11-19T04:01:15.914Z,28.92
2022-11-19T04:04:05.575Z,29.63
2022-11-19T04:06:33.429Z,33.83
2022-11-19T04:09:01.118Z,33.65
2022-11-19T04:11:28.864Z,33.25
2022-11-19T04:13:56.607Z,29.73
2022-11-19T04:16:24.377Z,32.22
2022-11-19T04:18:53.510Z,29.98
2022-11-19T04:21:21.237Z,30.08
2022-11-19T04:23:48.900Z,30.00
2022-11-19T04:26:16.670Z,29.85
2022-11-19T04:28:44.349Z,32.72
2022-11-19T04:31:16.548Z,27.98
2022-11-19T04:33:45.935Z,35.42
2022-11-19T04:36:15.003Z,33.47
2022-11-19T04:38:42.709Z,35.50
2022-11-19T04:41:10.454Z,42.28
2022-11-19T04:43:38.144Z,34.65
2022-11-19T04:46:06.035Z,37.72
2022-11-19T04:48:33.689Z,37.60
2022-11-19T04:51:01.417Z,39.35
2022-11-19T04:53:30.478Z,36.55
2022-11-19T04:55:58.166Z,39.10
2022-11-19T04:58:25.939Z,37.92
2022-11-19T05:00:53.769Z,40.75
2022-11-19T05:03:21.485Z,38.47
2022-11-19T05:05:49.218Z,37.92
2022-11-19T05:08:16.946Z,37.15
2022-11-19T05:10:46.117Z,38.38
2022-11-19T05:13:14.008Z,38.03
2022-11-19T05:15:41.764Z,36.20
2022-11-19T05:18:09.493Z,36.50
2022-11-19T05:20:37.183Z,36.60
2022-11-19T05:23:05.111Z,37.55
2022-11-19T05:25:32.942Z,36.10
2022-11-19T05:28:02.031Z,36.45
2022-11-19T05:30:29.887Z,36.75
2022-11-19T05:32:57.594Z,37.92
2022-11-19T05:35:25.401Z,36.30
2022-11-19T05:37:53.066Z,36.90
2022-11-19T05:40:20.917Z,36.47
2022-11-19T05:42:48.608Z,38.17
2022-11-19T05:45:17.814Z,37.67
2022-11-19T05:47:48.578Z,38.95
2022-11-19T05:50:16.755Z,34.70
2022-11-19T05:52:44.402Z,36.15
2022-11-19T05:55:12.052Z,38.70
2022-11-19T05:57:39.710Z,37.10
2022-11-19T06:00:08.529Z,36.22
2022-11-19T06:02:37.628Z,41.22
2022-11-19T06:05:06.179Z,39.03
2022-11-19T06:07:33.928Z,41.85
2022-11-19T06:10:01.709Z,38.63
2022-11-19T06:12:29.439Z,39.15
2022-11-19T06:14:57.148Z,40.00
2022-11-19T06:17:24.827Z,37.70
2022-11-19T06:19:53.850Z,39.53
2022-11-19T06:22:21.529Z,38.20
2022-11-19T06:24:49.168Z,37.42
2022-11-19T06:27:16.903Z,37.75
2022-11-19T06:29:44.766Z,39.10
2022-11-19T06:32:12.612Z,38.25
2022-11-19T06:34:40.331Z,38.63
2022-11-19T06:37:09.560Z,38.35
2022-11-19T06:39:37.264Z,39.30
2022-11-19T06:42:18.972Z,38.33
2022-11-19T06:44:46.646Z,40.55
2022-11-19T06:47:14.362Z,38.70
2022-11-19T06:49:42.057Z,37.38
2022-11-19T06:52:11.182Z,39.85
2022-11-19T06:54:42.881Z,39.60
2022-11-19T06:57:10.894Z,37.80
2022-11-19T06:59:39.213Z,38.40
2022-11-19T07:02:08.437Z,37.70
2022-11-19T07:04:36.169Z,38.85
2022-11-19T07:07:04.808Z,34.95
2022-11-19T07:09:33.993Z,36.53
2022-11-19T07:12:01.874Z,36.30
2022-11-19T07:14:29.572Z,35.05
2022-11-19T07:16:57.812Z,34.80
2022-11-19T07:19:25.589Z,37.67
2022-11-19T07:21:53.303Z,33.38
2022-11-19T07:24:21.182Z,34.85
2022-11-19T07:26:50.338Z,34.92
2022-11-19T07:29:18.594Z,38.28
2022-11-19T07:31:50.352Z,33.10
2022-11-19T07:34:18.934Z,26.17
2022-11-19T07:36:47.436Z,33.60
2022-11-19T07:39:15.130Z,32.25
2022-11-19T07:42:00.631Z,33.85
2022-11-19T07:44:29.619Z,32.08
2022-11-19T07:46:57.408Z,33.97
2022-11-19T07:49:26.062Z,33.00
2022-11-19T07:51:54.033Z,30.73
2022-11-19T07:54:21.850Z,30.77
2022-11-19T07:56:49.799Z,31.52
2022-11-19T07:59:17.983Z,32.92
2022-11-19T08:01:47.395Z,31.02
2022-11-19T08:04:15.120Z,31.48
2022-11-19T08:06:42.861Z,30.50
2022-11-19T08:09:10.594Z,30.00
2022-11-19T08:11:38.262Z,27.98
2022-11-19T08:14:05.949Z,29.08
2022-11-19T08:16:51.787Z,29.38
2022-11-19T08:19:21.135Z,27.00
2022-11-19T08:21:49.239Z,28.25
2022-11-19T08:24:19.632Z,27.30
2022-11-19T08:26:48.889Z,30.42
2022-11-19T08:29:18.501Z,29.00
2022-11-19T08:31:47.486Z,26.30
2022-11-19T08:34:15.818Z,30.55
2022-11-19T08:36:45.327Z,31.40
2022-11-19T08:39:13.271Z,28.85
2022-11-19T08:41:58.603Z,27.77
2022-11-19T08:44:26.398Z,26.15
2022-11-19T08:46:54.157Z,25.02
2022-11-19T08:49:21.902Z,28.77
2022-11-19T08:51:51.000Z,26.60
2022-11-19T08:54:19.290Z,25.77
2022-11-19T08:56:47.349Z,26.85
2022-11-19T08:59:15.113Z,27.45
2022-11-19T09:01:42.814Z,25.40
2022-11-19T09:04:10.602Z,26.08
2022-11-19T09:06:38.288Z,26.50
2022-11-19T09:09:07.477Z,25.42
2022-11-19T09:11:41.343Z,25.35
2022-11-19T09:14:10.861Z,22.55
2022-11-19T09:16:38.678Z,23.88
2022-11-19T09:19:06.395Z,23.77
2022-11-19T09:21:34.126Z,20.73
2022-11-19T09:24:01.860Z,21.88
2022-11-19T09:26:30.944Z,21.33
2022-11-19T09:28:58.688Z,21.05
2022-11-19T09:31:26.412Z,19.63
2022-11-19T09:33:55.573Z,20.55
2022-11-19T09:36:23.401Z,19.85
2022-11-19T09:38:51.133Z,20.45
2022-11-19T09:41:40.668Z,19.45
2022-11-19T09:44:20.766Z,19.15
2022-11-19T09:46:58.324Z,22.05
2022-11-19T09:49:29.879Z,21.15
2022-11-19T09:52:04.835Z,21.13
2022-11-19T09:54:33.205Z,19.85
2022-11-19T09:57:11.080Z,18.45
2022-11-19T09:59:41.436Z,20.75
2022-11-19T10:02:18.254Z,19.50
2022-11-19T10:04:48.267Z,20.13
2022-11-19T10:07:24.996Z,17.15
2022-11-19T10:10:12.756Z,19.10
2022-11-19T10:13:11.607Z,19.85
2022-11-19T10:15:54.421Z,19.77
2022-11-19T10:18:30.721Z,18.23
2022-11-19T10:21:03.790Z,18.92
2022-11-19T10:23:47.032Z,17.83
2022-11-19T10:26:18.061Z,22.13
2022-11-19T10:28:54.912Z,19.23
2022-11-19T10:31:30.402Z,20.88
2022-11-19T10:34:05.908Z,21.10
2022-11-19T10:36:41.242Z,18.70
2022-11-19T10:39:18.162Z,16.90
2022-11-19T10:41:53.218Z,15.77
2022-11-19T10:44:41.050Z,20.35
2022-11-19T10:47:14.572Z,17.05
2022-11-19T10:49:43.752Z,17.08
2022-11-19T10:52:20.395Z,15.68
2022-11-19T10:54:49.846Z,15.25
2022-11-19T10:57:20.602Z,16.77
2022-11-19T10:59:52.284Z,14.98
2022-11-19T11:02:28.167Z,15.52
2022-11-19T11:05:18.274Z,19.77
2022-11-19T11:07:55.033Z,15.93
2022-11-19T11:10:36.009Z,23.17
2022-11-19T11:13:32.958Z,21.23
2022-11-19T11:16:06.385Z,18.25
2022-11-19T11:18:34.558Z,16.98
2022-11-19T11:21:02.376Z,16.77
2022-11-19T11:23:31.237Z,15.95
2022-11-19T11:26:06.213Z,14.88
2022-11-19T11:28:34.584Z,15.85
2022-11-19T11:31:05.406Z,15.98
2022-11-19T11:33:36.768Z,16.40
2022-11-19T11:36:08.278Z,14.80
2022-11-19T11:38:43.373Z,16.92
2022-11-19T11:42:02.392Z,14.57
2022-11-19T11:44:04.102Z,15.95
2022-11-19T11:46:39.449Z,14.85
2022-11-19T11:49:12.721Z,13.82
2022-11-19T11:51:40.910Z,16.15
2022-11-19T11:54:18.409Z,15.73
2022-11-19T11:56:47.045Z,16.00
2022-11-19T11:59:22.624Z,15.20
2022-11-19T12:02:04.516Z,15.13
2022-11-19T12:04:32.781Z,15.13
2022-11-19T12:07:13.827Z,14.45
2022-11-19T12:09:50.412Z,15.88
2022-11-19T12:12:28.639Z,17.45
2022-11-19T12:15:01.801Z,16.85
2022-11-19T12:17:44.188Z,15.38
2022-11-19T12:20:24.860Z,18.13
2022-11-19T12:23:07.953Z,15.20
2022-11-19T12:25:41.138Z,15.73
2022-11-19T12:28:29.277Z,14.52
2022-11-19T12:31:06.526Z,17.30
2022-11-19T12:33:54.394Z,17.25
2022-11-19T12:36:31.214Z,14.10
2022-11-19T12:39:04.062Z,15.48
2022-11-19T12:41:53.415Z,15.32
2022-11-19T12:44:33.246Z,13.50
2022-11-19T12:47:10.708Z,14.30
2022-11-19T12:50:01.024Z,14.48
2022-11-19T12:52:41.508Z,14.15
2022-11-19T12:55:18.806Z,14.93
2022-11-19T12:57:54.789Z,14.55
2022-11-19T13:00:24.198Z,16.25
2022-11-19T13:03:01.384Z,15.57
2022-11-19T13:05:39.613Z,14.32
2022-11-19T13:08:15.600Z,15.57
2022-11-19T13:10:50.667Z,15.68
2022-11-19T13:13:23.987Z,16.67
2022-11-19T13:15:59.983Z,17.60
2022-11-19T13:18:32.021Z,15.95
2022-11-19T13:21:04.902Z,14.07
2022-11-19T13:23:38.381Z,14.68
2022-11-19T13:26:12.068Z,16.67
2022-11-19T13:28:45.837Z,14.77
2022-11-19T13:31:19.905Z,14.32
2022-11-19T13:33:52.850Z,14.98
2022-11-19T13:36:28.864Z,15.98
2022-11-19T13:39:02.229Z,16.52
2022-11-19T13:41:34.260Z,15.18
2022-11-19T13:44:20.053Z,14.77
2022-11-19T13:46:51.393Z,15.23
2022-11-19T13:49:24.172Z,14.15
2022-11-19T13:51:57.864Z,15.15
2022-11-19T13:54:28.348Z,17.90
2022-11-19T13:57:00.335Z,13.68
2022-11-19T13:59:36.769Z,15.80
2022-11-19T14:02:42.328Z,15.90
2022-11-19T14:05:36.609Z,14.40
2022-11-19T14:08:24.818Z,14.15
2022-11-19T14:11:09.299Z,13.75
2022-11-19T14:13:55.275Z,15.85
2022-11-19T14:16:52.270Z,17.15
2022-11-19T14:19:37.654Z,15.05
2022-11-19T14:22:50.202Z,16.90
2022-11-19T14:26:02.596Z,14.07
2022-11-19T14:28:47.991Z,13.95
2022-11-19T14:31:16.511Z,13.82
2022-11-19T14:34:01.274Z,13.68
2022-11-19T14:36:48.480Z,13.35
2022-11-19T14:39:23.198Z,14.07
2022-11-19T14:42:13.644Z,14.35
2022-11-19T14:44:41.858Z,13.02
2022-11-19T14:47:33.445Z,15.63
2022-11-19T14:50:04.061Z,15.77
2022-11-19T14:52:34.896Z,16.60
2022-11-19T14:55:06.727Z,15.13
2022-11-19T14:57:38.755Z,18.45
2022-11-19T15:00:27.032Z,16.27
2022-11-19T15:02:55.437Z,15.45
2022-11-19T15:05:29.118Z,16.50
2022-11-19T15:08:31.051Z,15.32
2022-11-19T15:11:08.115Z,15.63
2022-11-19T15:13:39.184Z,17.38
2022-11-19T15:16:13.266Z,16.25
2022-11-19T15:19:08.959Z,15.18
2022-11-19T15:21:54.099Z,16.25
2022-11-19T15:24:36.016Z,14.93
2022-11-19T15:27:15.897Z,15.05
2022-11-19T15:30:05.526Z,15.50
2022-11-19T15:32:46.671Z,16.48
2022-11-19T15:35:34.220Z,14.80
2022-11-19T15:38:09.393Z,14.30
2022-11-19T15:40:40.666Z,15.63
2022-11-19T15:43:17.969Z,13.75
2022-11-19T15:45:52.331Z,14.60
2022-11-19T15:48:24.831Z,13.77
2022-11-19T15:50:53.220Z,15.02
2022-11-19T15:53:23.063Z,14.93
2022-11-19T15:55:54.676Z,14.45
2022-11-19T15:58:36.252Z,15.40
2022-11-19T16:01:06.867Z,14.57
2022-11-19T16:03:38.147Z,14.55
2022-11-19T16:06:10.208Z,15.75
2022-11-19T16:08:39.137Z,14.57
2022-11-19T16:11:24.388Z,13.10
2022-11-19T16:14:10.734Z,14.70
2022-11-19T16:16:58.312Z,13.73
2022-11-19T16:19:25.969Z,12.60
2022-11-19T16:21:58.035Z,13.88
2022-11-19T16:24:45.984Z,15.52
2022-11-19T16:27:20.945Z,11.93
2022-11-19T16:29:48.738Z,12.40
2022-11-19T16:32:19.876Z,13.50
2022-11-19T16:34:47.840Z,12.95
2022-11-19T16:37:17.074Z,12.70
2022-11-19T16:39:51.396Z,14.15
2022-11-19T16:42:26.403Z,11.48
2022-11-19T16:44:56.346Z,11.93
2022-11-19T16:47:30.878Z,11.30
2022-11-19T16:50:07.797Z,13.20
2022-11-19T16:52:40.294Z,12.38
2022-11-19T16:57:58.769Z,14.55
2022-11-19T17:00:31.544Z,13.13
2022-11-19T17:03:02.123Z,12.13
2022-11-19T17:05:29.825Z,12.68
2022-11-19T17:08:06.861Z,13.13
2022-11-19T17:10:35.420Z,13.80
2022-11-19T17:13:16.044Z,13.10
2022-11-19T17:15:45.168Z,13.10
2022-11-19T17:18:20.161Z,18.38
2022-11-19T17:20:52.548Z,12.40
2022-11-19T17:23:22.301Z,16.88
2022-11-19T17:25:52.633Z,17.27
2022-11-19T17:28:22.246Z,19.13
2022-11-19T17:30:50.639Z,16.60
2022-11-19T17:33:24.322Z,19.58
2022-11-19T17:35:52.961Z,14.07
2022-11-19T17:38:27.120Z,18.85
2022-11-19T17:40:57.602Z,18.75
2022-11-19T17:43:48.150Z,16.83
2022-11-19T17:46:15.922Z,16.20
2022-11-19T17:48:46.414Z,16.88
2022-11-19T17:51:16.501Z,18.15
2022-11-19T17:53:44.304Z,16.75
2022-11-19T17:56:20.283Z,17.10
2022-11-19T17:58:48.189Z,27.80
2022-11-19T18:01:20.217Z,18.95
2022-11-19T18:03:55.234Z,28.38
2022-11-19T18:06:23.031Z,16.45
2022-11-19T18:08:50.786Z,17.77
2022-11-19T18:11:20.262Z,18.85
2022-11-19T18:13:50.879Z,17.98
2022-11-19T18:16:21.596Z,17.20
2022-11-19T18:18:50.776Z,16.73
2022-11-19T18:21:21.197Z,19.00
2022-11-19T18:23:50.592Z,19.02
2022-11-19T18:26:19.837Z,21.17
2022-11-19T18:28:49.096Z,17.92
2022-11-19T18:31:20.445Z,21.50
2022-11-19T18:33:49.197Z,17.83
2022-11-19T18:36:19.033Z,19.70
2022-11-19T18:38:46.978Z,16.98
2022-11-19T18:41:16.117Z,17.27
2022-11-19T18:44:01.169Z,18.35
2022-11-19T18:46:28.856Z,18.40
2022-11-19T18:48:56.733Z,19.10
2022-11-19T18:51:27.517Z,21.27
2022-11-19T18:53:55.226Z,18.38
2022-11-19T18:56:22.976Z,20.83
2022-11-19T18:58:50.782Z,22.13
2022-11-19T19:01:18.761Z,20.70
2022-11-19T19:03:46.573Z,20.42
2022-11-19T19:06:15.732Z,19.02
2022-11-19T19:08:49.857Z,25.98
2022-11-19T19:11:35.198Z,28.83
2022-11-19T19:14:07.853Z,27.40
2022-11-19T19:16:36.307Z,20.08
2022-11-19T19:19:07.211Z,25.35
2022-11-19T19:21:35.361Z,21.92
2022-11-19T19:24:07.207Z,21.38
2022-11-19T19:26:35.002Z,22.45
2022-11-19T19:29:03.276Z,25.48
2022-11-19T19:31:31.333Z,21.80
2022-11-19T19:33:59.415Z,21.85
2022-11-19T19:36:27.846Z,35.75
2022-11-19T19:38:55.833Z,21.95
2022-11-19T19:41:27.076Z,22.02
2022-11-19T19:43:57.254Z,22.70
2022-11-19T19:46:25.522Z,21.33
2022-11-19T19:48:55.044Z,22.20
2022-11-19T19:51:24.724Z,21.17
2022-11-19T19:53:53.036Z,23.95
2022-11-19T19:56:23.252Z,23.05
2022-11-19T19:58:53.124Z,24.90
2022-11-19T20:01:24.201Z,22.00
2022-11-19T20:03:54.693Z,26.98
2022-11-19T20:06:24.473Z,21.73
2022-11-19T20:08:52.422Z,27.67
2022-11-19T20:11:21.670Z,28.85
2022-11-19T20:13:49.841Z,27.33
2022-11-19T20:16:20.918Z,25.35
2022-11-19T20:18:50.832Z,23.35
2022-11-19T20:21:21.363Z,30.30
2022-11-19T20:23:49.399Z,34.75
2022-11-19T20:26:28.539Z,24.40
2022-11-19T20:28:57.660Z,22.60
2022-11-19T20:31:29.008Z,22.88
2022-11-19T20:33:58.785Z,22.08
2022-11-19T20:36:29.113Z,24.02
2022-11-19T20:38:58.907Z,24.27
2022-11-19T20:41:45.718Z,23.40
2022-11-19T20:44:21.630Z,24.85
2022-11-19T20:46:53.317Z,23.02
2022-11-19T20:49:23.708Z,23.80
2022-11-19T20:51:52.904Z,22.02
2022-11-19T20:54:21.419Z,19.65
2022-11-19T20:56:49.951Z,20.35
2022-11-19T20:59:20.146Z,20.70
2022-11-19T21:01:49.465Z,20.65
2022-11-19T21:04:19.434Z,21.27
2022-11-19T21:06:47.717Z,24.75
2022-11-19T21:09:16.419Z,23.80
2022-11-19T21:11:44.270Z,23.88
2022-11-19T21:14:12.263Z,22.15
2022-11-19T21:16:40.141Z,22.95
2022-11-19T21:19:08.096Z,20.70
2022-11-19T21:21:37.378Z,22.23
2022-11-19T21:24:05.767Z,20.42
2022-11-19T21:26:33.762Z,22.35
2022-11-19T21:29:01.656Z,20.88
2022-11-19T21:31:39.574Z,22.98
2022-11-19T21:34:08.449Z,20.83
2022-11-19T21:36:38.159Z,20.67
2022-11-19T21:39:07.297Z,20.98
2022-11-19T21:41:35.228Z,21.83
2022-11-19T21:44:03.815Z,22.58
2022-11-19T21:46:32.019Z,19.95
2022-11-19T21:49:00.194Z,18.63
2022-11-19T21:51:28.097Z,18.50
2022-11-19T21:53:58.475Z,18.17
2022-11-19T21:56:27.971Z,22.27
2022-11-19T22:02:15.700Z,22.13
2022-11-19T22:04:43.582Z,21.27
2022-11-19T22:07:11.552Z,24.67
2022-11-19T22:09:40.810Z,26.13
2022-11-19T22:12:08.773Z,28.85
2022-11-19T22:14:36.544Z,31.88
2022-11-19T22:17:04.547Z,29.95
2022-11-19T22:19:32.409Z,26.85
2022-11-19T22:22:00.311Z,25.77
2022-11-19T22:24:28.116Z,25.17
2022-11-19T22:26:57.415Z,28.77
2022-11-19T22:29:25.505Z,24.83
2022-11-19T22:31:53.329Z,25.35
2022-11-19T22:34:21.149Z,30.25
2022-11-19T22:36:48.987Z,30.17
2022-11-19T22:39:18.522Z,28.23
2022-11-19T22:41:46.587Z,27.98
2022-11-19T22:44:18.429Z,27.17
2022-11-19T22:46:46.329Z,25.13
2022-11-19T22:49:14.262Z,26.02
2022-11-19T22:51:42.196Z,25.25
2022-11-19T22:54:11.745Z,22.27
2022-11-19T22:56:39.532Z,25.25
2022-11-19T22:59:07.247Z,25.08
2022-11-19T23:01:37.117Z,24.05
2022-11-19T23:04:07.683Z,22.95
2022-11-19T23:06:36.459Z,27.15
2022-11-19T23:09:05.020Z,28.90
2022-11-19T23:11:50.711Z,28.15
2022-11-19T23:14:20.455Z,24.75
2022-11-19T23:16:49.863Z,23.30
2022-11-19T23:19:19.373Z,25.88
2022-11-19T23:21:47.828Z,26.60
2022-11-19T23:24:15.810Z,31.75
2022-11-19T23:26:43.541Z,30.65
2022-11-19T23:29:11.252Z,35.85
2022-11-19T23:31:40.147Z,27.25
2022-11-19T23:34:09.702Z,28.33
2022-11-19T23:36:39.553Z,62.58
2022-11-19T23:39:09.902Z,33.00
2022-11-19T23:41:37.747Z,26.92
2022-11-19T23:44:05.636Z,26.90
2022-11-19T23:46:35.328Z,27.98
2022-11-19T23:49:03.547Z,30.80
2022-11-19T23:51:34.558Z,31.35
2022-11-19T23:54:02.548Z,32.13
2022-11-19T23:56:32.128Z,27.90
2022-11-19T23:59:02.106Z,28.58
